Home > Products > Valid Products > TAF

000
FTUS44 KJAN 272320
TAFHBG
TAF
KHBG 272320Z 2800/2824 18004KT P6SM FEW035 SCT250
     FM280900 14001KT 3SM BR OVC006
     FM281100 15003KT 2SM BR OVC003
     FM281500 15004KT P6SM SCT025=



000
FTUS44 KJAN 272320
TAFHBG
TAF
KHBG 272320Z 2800/2824 18004KT P6SM FEW035 SCT250
     FM280900 14001KT 3SM BR OVC006
     FM281100 15003KT 2SM BR OVC003
     FM281500 15004KT P6SM SCT025=



000
FTUS44 KJAN 272320
TAFGWO
TAF
KGWO 272320Z 2800/2824 11003KT P6SM SCT050 BKN100
     FM281000 15003KT 3SM BR OVC005
     FM281500 15004KT P6SM BKN020
     FM281600 16006KT P6SM SCT040=



000
FTUS44 KJAN 272320
TAFMEI
TAF
KMEI 272320Z 2800/2824 VRB04KT P6SM SCT040 BKN130
     FM280700 14004KT P6SM OVC012
     FM280930 15003KT 3SM BR OVC003
     FM281500 15004KT P6SM BKN020
     FM281600 16006KT P6SM SCT040=



000
FTUS44 KJAN 272320
TAFGLH
TAF
KGLH 272320Z 2800/2824 12008KT P6SM BKN015
     FM280100 13004KT P6SM SCT250
     FM281000 15003KT 3SM BR OVC005
     FM281430 15004KT P6SM BKN020
     FM281600 16006KT P6SM SCT040=



000
FTUS44 KJAN 272320
TAFGLH
TAF
KGLH 272320Z 2800/2824 12008KT P6SM BKN015
     FM280100 13004KT P6SM SCT250
     FM281000 15003KT 3SM BR OVC005
     FM281430 15004KT P6SM BKN020
     FM281600 16006KT P6SM SCT040=



000
FTUS44 KJAN 272320
TAFMEI
TAF
KMEI 272320Z 2800/2824 VRB04KT P6SM SCT040 BKN130
     FM280700 14004KT P6SM OVC012
     FM280930 15003KT 3SM BR OVC003
     FM281500 15004KT P6SM BKN020
     FM281600 16006KT P6SM SCT040=



000
FTUS44 KJAN 272320
TAFGWO
TAF
KGWO 272320Z 2800/2824 11003KT P6SM SCT050 BKN100
     FM281000 15003KT 3SM BR OVC005
     FM281500 15004KT P6SM BKN020
     FM281600 16006KT P6SM SCT040=



000
FTUS44 KJAN 272320
TAFJAN
TAF
KJAN 272320Z 2800/2824 16003KT P6SM FEW040 BKN250
     FM281000 15003KT 3SM BR OVC005
     FM281500 15004KT P6SM SCT025=



000
FTUS44 KJAN 271827 CCA
TAFGLH
TAF COR
KGLH 271827Z 2718/2818 36008KT P6SM VCSH SCT045 OVC080
     FM272000 12005KT P6SM FEW060 BKN200
     FM281000 15003KT 3SM BR OVC005
     FM281500 15004KT P6SM BKN020=



000
FTUS44 KJAN 271827 CCA
TAFGLH
TAF COR
KGLH 271827Z 2718/2818 36008KT P6SM VCSH SCT045 OVC080
     FM272000 12005KT P6SM FEW060 BKN200
     FM281000 15003KT 3SM BR OVC005
     FM281500 15004KT P6SM BKN020=



000
FTUS44 KJAN 271826 CCB
TAFJAN
TAF COR
KJAN 271826Z 2718/2818 21008KT P6SM VCTS FEW024 FEW035CB SCT045
     FM271850 19006KT P6SM VCSH SCT040 OVC060
     FM272100 VRB03KT P6SM FEW060 BKN250
     FM281000 15003KT 3SM BR OVC005
     FM281500 15004KT P6SM BKN020=



000
FTUS44 KJAN 271742
TAFJAN
TAF
KJAN 271742Z 2718/2818 17011KT P6SM VCTS SCT030 BKN040CB
      TEMPO 2719/2720 19020G30KT TSRA OVC030CB
     FM272100 VRB03KT P6SM FEW060 BKN250
     FM281000 15003KT 3SM BR OVC005
     FM281500 15004KT P6SM BKN020=



000
FTUS44 KJAN 271742
TAFHBG
TAF
KHBG 271742Z 2718/2818 14006KT P6SM VCTS FEW022 SCT030CB
     FM271830 18020G35KT 2SM +TSRA OVC025CB
     FM272000 17008KT 5SM SHRA VCTS SCT020 OVC040CB
     FM272230 15001KT P6SM SCT050 OVC120
     FM280900 14001KT 3SM BR OVC006
     FM281100 15003KT 2SM BR OVC003
     FM281500 15004KT P6SM BKN020=



000
FTUS44 KJAN 271742
TAFGLH
TAF
KGLH 271742Z 2718/2818 VRB06KT P6SM VCSH FEW009 BKN027 BKN060
     FM271930 12005KT P6SM FEW060 BKN200
     FM281000 15003KT 3SM BR OVC005
     FM281500 15004KT P6SM BKN020=



000
FTUS44 KJAN 271742
TAFGWO
TAF
KGWO 271742Z 2718/2818 17009KT P6SM SHRA VCTS FEW017 BKN035CB
     FM272100 14005KT P6SM FEW060 BKN200
     FM281000 15003KT 3SM BR OVC005
     FM281500 15004KT P6SM BKN020=



000
FTUS44 KJAN 271742
TAFMEI
TAF
KMEI 271742Z 2718/2818 15008KT P6SM SCT030 BKN040
     FM271900 17006KT P6SM VCTS BKN035CB
      TEMPO 2720/2722 19020G30KT TSRA OVC030CB
     FM280000 00000KT 6SM BR BKN250
     FM281000 15003KT 3SM BR OVC005
     FM281500 15004KT P6SM BKN020=



000
FTUS44 KJAN 271742
TAFGLH
TAF
KGLH 271742Z 2718/2818 VRB06KT P6SM VCSH FEW009 BKN027 BKN060
     FM271930 12005KT P6SM FEW060 BKN200
     FM281000 15003KT 3SM BR OVC005
     FM281500 15004KT P6SM BKN020=



000
FTUS44 KJAN 271742
TAFGWO
TAF
KGWO 271742Z 2718/2818 17009KT P6SM SHRA VCTS FEW017 BKN035CB
     FM272100 14005KT P6SM FEW060 BKN200
     FM281000 15003KT 3SM BR OVC005
     FM281500 15004KT P6SM BKN020=



000
FTUS44 KJAN 271742
TAFHBG
TAF
KHBG 271742Z 2718/2818 14006KT P6SM VCTS FEW022 SCT030CB
     FM271830 18020G35KT 2SM +TSRA OVC025CB
     FM272000 17008KT 5SM SHRA VCTS SCT020 OVC040CB
     FM272230 15001KT P6SM SCT050 OVC120
     FM280900 14001KT 3SM BR OVC006
     FM281100 15003KT 2SM BR OVC003
     FM281500 15004KT P6SM BKN020=



000
FTUS44 KJAN 271742
TAFMEI
TAF
KMEI 271742Z 2718/2818 15008KT P6SM SCT030 BKN040
     FM271900 17006KT P6SM VCTS BKN035CB
      TEMPO 2720/2722 19020G30KT TSRA OVC030CB
     FM280000 00000KT 6SM BR BKN250
     FM281000 15003KT 3SM BR OVC005
     FM281500 15004KT P6SM BKN020=



000
FTUS44 KJAN 271524 AAA
TAFMEI
TAF AMD
KMEI 271524Z 2715/2812 19006KT P6SM BKN013 OVC021
     FM271600 20006KT P6SM BKN025
     FM271900 17006KT P6SM VCTS BKN035CB
     FM280000 00000KT 6SM BR BKN250=



000
FTUS44 KJAN 271524 AAA
TAFMEI
TAF AMD
KMEI 271524Z 2715/2812 19006KT P6SM BKN013 OVC021
     FM271600 20006KT P6SM BKN025
     FM271900 17006KT P6SM VCTS BKN035CB
     FM280000 00000KT 6SM BR BKN250=



000
FTUS44 KJAN 271523 AAA
TAFGLH
TAF AMD
KGLH 271523Z 2715/2812 33006KT P6SM SHRA VCTS BKN018CB OVC100
      TEMPO 2717/2718 1SM TSRA OVC015CB
     FM271800 VRB06KT P6SM -RA SCT030 BKN050
     FM271930 VRB05KT P6SM FEW060 BKN200=



000
FTUS44 KJAN 271343 AAB
TAFJAN
TAF AMD
KJAN 271343Z 2714/2812 17007KT 6SM BR SCT010 BKN015
     FM271500 20006KT P6SM BKN025
     FM271800 17006KT P6SM VCTS BKN050CB
     FM272200 VRB03KT P6SM BKN250
     FM281000 15002KT P6SM OVC100=



000
FTUS44 KJAN 271343 AAB
TAFJAN
TAF AMD
KJAN 271343Z 2714/2812 17007KT 6SM BR SCT010 BKN015
     FM271500 20006KT P6SM BKN025
     FM271800 17006KT P6SM VCTS BKN050CB
     FM272200 VRB03KT P6SM BKN250
     FM281000 15002KT P6SM OVC100=



000
FTUS44 KJAN 271330 AAA
TAFHBG
TAF AMD
KHBG 271330Z 2714/2812 12008KT P6SM SCT007 OVC016
     FM271500 17006KT P6SM BKN022
     FM271630 20006KT P6SM VCSH SCT035
     FM271800 17006KT P6SM VCTS BKN050CB
     FM280000 15001KT 6SM BR BKN250
     FM280900 14001KT 1/2SM FG OVC003=



000
FTUS44 KJAN 271208 CCA
TAFHBG
TAF COR
KHBG 271208Z 2712/2812 13005KT 1SM BR OVC002
     FM271400 15005KT 4SM BR BKN005
     FM271500 20006KT P6SM VCSH SCT035
     FM271800 17006KT P6SM VCTS BKN050CB
     FM280600 15001KT 6SM BR BKN250
     FM280900 14001KT 1/2SM FG OVC003=



000
FTUS44 KJAN 271208 CCA
TAFHBG
TAF COR
KHBG 271208Z 2712/2812 13005KT 1SM BR OVC002
     FM271400 15005KT 4SM BR BKN005
     FM271500 20006KT P6SM VCSH SCT035
     FM271800 17006KT P6SM VCTS BKN050CB
     FM280600 15001KT 6SM BR BKN250
     FM280900 14001KT 1/2SM FG OVC003=



000
FTUS44 KJAN 271120
TAFHBG
TAF
KHBG 271120Z 2712/2812 VRB03KT 1/2SM FG VV002
     FM271400 VRB03KT 2SM BR BKN005
     FM271500 20006KT P6SM VCSH SCT035
     FM271800 17006KT P6SM VCTS BKN050CB
     FM280600 15001KT 6SM BR BKN250
     FM280900 14001KT 1/2SM FG OVC003=



000
FTUS44 KJAN 271120
TAFMEI
TAF
KMEI 271120Z 2712/2812 20004KT 4SM BR BKN002
     FM271300 18003KT 5SM BR BKN005
     FM271500 20006KT P6SM SCT035
     FM272000 17006KT P6SM VCTS BKN050CB
     FM280600 00000KT 6SM BR BKN250=



000
FTUS44 KJAN 271120
TAFGWO
TAF
KGWO 271120Z 2712/2812 19005KT P6SM -RA VCTS SCT040CB OVC100
     FM271500 19006KT P6SM SCT035
     FM272000 18006KT P6SM VCTS BKN050CB
     FM280600 16004KT P6SM BKN250=



000
FTUS44 KJAN 271120
TAFJAN
TAF
KJAN 271120Z 2712/2812 18003KT 1/2SM FG OVC002
     FM271500 20006KT P6SM SCT035
     FM272000 17006KT P6SM VCTS BKN050CB
     FM280600 VRB03KT P6SM BKN250
     FM281000 15002KT P6SM OVC100=



000
FTUS44 KJAN 271120
TAFHBG
TAF
KHBG 271120Z 2712/2812 VRB03KT 1/2SM FG VV002
     FM271400 VRB03KT 2SM BR BKN005
     FM271500 20006KT P6SM VCSH SCT035
     FM271800 17006KT P6SM VCTS BKN050CB
     FM280600 15001KT 6SM BR BKN250
     FM280900 14001KT 1/2SM FG OVC003=



000
FTUS44 KJAN 271120
TAFGLH
TAF
KGLH 271120Z 2712/2812 18005KT P6SM VCTS SCT040CB OVC100
     FM271500 19006KT P6SM VCTS SCT030 BKN050CB
     FM272000 19006KT P6SM VCTS BKN050CB
     FM280600 16004KT P6SM BKN250=



000
FTUS44 KJAN 271120
TAFMEI
TAF
KMEI 271120Z 2712/2812 20004KT 4SM BR BKN002
     FM271300 18003KT 5SM BR BKN005
     FM271500 20006KT P6SM SCT035
     FM272000 17006KT P6SM VCTS BKN050CB
     FM280600 00000KT 6SM BR BKN250=



000
FTUS44 KJAN 271120
TAFGWO
TAF
KGWO 271120Z 2712/2812 19005KT P6SM -RA VCTS SCT040CB OVC100
     FM271500 19006KT P6SM SCT035
     FM272000 18006KT P6SM VCTS BKN050CB
     FM280600 16004KT P6SM BKN250=



000
FTUS44 KJAN 271120
TAFJAN
TAF
KJAN 271120Z 2712/2812 18003KT 1/2SM FG OVC002
     FM271500 20006KT P6SM SCT035
     FM272000 17006KT P6SM VCTS BKN050CB
     FM280600 VRB03KT P6SM BKN250
     FM281000 15002KT P6SM OVC100=



000
FTUS44 KJAN 271120
TAFGLH
TAF
KGLH 271120Z 2712/2812 18005KT P6SM VCTS SCT040CB OVC100
     FM271500 19006KT P6SM VCTS SCT030 BKN050CB
     FM272000 19006KT P6SM VCTS BKN050CB
     FM280600 16004KT P6SM BKN250=



000
FTUS44 KJAN 271058 AAB
TAFJAN
TAF AMD
KJAN 271058Z 2711/2806 VRB03KT 1/2SM FG OVC002
     FM271400 18003KT 4SM BR SCT015
     FM271500 20006KT P6SM SCT035
     FM272000 17006KT P6SM VCTS BKN050CB=



000
FTUS44 KJAN 271058 AAB
TAFJAN
TAF AMD
KJAN 271058Z 2711/2806 VRB03KT 1/2SM FG OVC002
     FM271400 18003KT 4SM BR SCT015
     FM271500 20006KT P6SM SCT035
     FM272000 17006KT P6SM VCTS BKN050CB=



000
FTUS44 KJAN 270948 AAA
TAFGLH
TAF AMD
KGLH 270948Z 2710/2806 18005KT P6SM VCTS SCT040CB OVC100
     FM271500 19006KT P6SM VCTS SCT030 BKN050CB
     FM272000 19006KT P6SM VCTS BKN050CB=



000
FTUS44 KJAN 270905 AAC
TAFMEI
TAF AMD
KMEI 270905Z 2709/2806 20004KT 3SM BR BKN002
     FM271300 18003KT 2SM BR BKN005
     FM271500 20006KT P6SM SCT035
     FM272000 17006KT P6SM VCTS BKN050CB=



000
FTUS44 KJAN 270724 AAB
TAFMEI
TAF AMD
KMEI 270724Z 2707/2806 20004KT 1SM BR BKN002
     FM271300 18003KT 3SM BR BKN005
     FM271500 20006KT P6SM SCT035
     FM272000 17006KT P6SM VCTS BKN050CB=



000
FTUS44 KJAN 270724 AAA
TAFHBG
TAF AMD
KHBG 270724Z 2707/2806 VRB03KT 1/2SM FG VV002
     FM271300 VRB03KT 1SM BR BKN005
     FM271500 20006KT P6SM VCSH SCT035
     FM271800 17006KT P6SM VCTS BKN050CB=



000
FTUS44 KJAN 270545 AAA
TAFMEI
TAF AMD
KMEI 270545Z 2706/2806 20004KT P6SM BKN003
     FM271000 18003KT 3SM BR BKN005
     FM271500 20006KT P6SM SCT035
     FM272000 17006KT P6SM VCTS BKN050CB=



000
FTUS44 KJAN 270520
TAFHBG
TAF
KHBG 270520Z 2706/2806 20004KT P6SM SCT250
     FM270800 VRB03KT 3SM BR SCT010
     FM271000 VRB03KT 1SM BR BKN007
     FM271500 20006KT P6SM VCSH SCT035
     FM271800 17006KT P6SM VCTS BKN050CB=



000
FTUS44 KJAN 270520
TAFGWO
TAF
KGWO 270520Z 2706/2806 19005KT P6SM VCSH SCT040
     FM271500 19006KT P6SM SCT035
     FM272000 18006KT P6SM VCTS BKN050CB=



000
FTUS44 KJAN 270520
TAFGLH
TAF
KGLH 270520Z 2706/2806 18005KT P6SM VCSH SCT040
     FM271500 19006KT P6SM SCT035
     FM272000 19006KT P6SM VCTS BKN050CB=



000
FTUS44 KJAN 270520
TAFJAN
TAF
KJAN 270520Z 2706/2806 18004KT P6SM SCT040
     FM271000 18003KT 4SM BR SCT015
     FM271500 20006KT P6SM SCT035
     FM272000 17006KT P6SM VCTS BKN050CB=



000
FTUS44 KJAN 270520
TAFMEI
TAF
KMEI 270520Z 2706/2806 20004KT P6SM SCT250
     FM271000 18003KT 3SM BR BKN010
     FM271500 20006KT P6SM SCT035
     FM272000 17006KT P6SM VCTS BKN050CB=



000
FTUS44 KJAN 262340
TAFGWO
TAF
KGWO 262340Z 2700/2724 19005KT P6SM VCSH SCT040
     FM271500 19006KT P6SM SCT035
     FM272000 18006KT P6SM VCTS BKN050CB=



000
FTUS44 KJAN 262340
TAFJAN
TAF
KJAN 262340Z 2700/2724 18004KT P6SM SCT040
     FM271000 18003KT 4SM BR SCT015
     FM271500 20006KT P6SM SCT035
     FM272000 17006KT P6SM VCTS BKN050CB=



000
FTUS44 KJAN 262340
TAFGLH
TAF
KGLH 262340Z 2700/2724 18005KT P6SM VCSH SCT040
     FM271500 19006KT P6SM SCT035
     FM272000 19006KT P6SM VCTS BKN050CB=



000
FTUS44 KJAN 262340
TAFMEI
TAF
KMEI 262340Z 2700/2724 18004KT P6SM SCT040
     FM270100 20004KT P6SM SCT250
     FM271000 18003KT 3SM BR BKN010
     FM271500 20006KT P6SM SCT035
     FM272000 17006KT P6SM VCTS BKN050CB=



000
FTUS44 KJAN 262340
TAFHBG
TAF
KHBG 262340Z 2700/2724 18004KT P6SM SCT040
     FM270100 20004KT P6SM SCT250
     FM270800 VRB03KT 3SM BR SCT010
     FM271000 VRB03KT 1SM BR BKN007
     FM271500 20006KT P6SM VCSH SCT035
     FM271800 17006KT P6SM VCTS BKN050CB=



000
FTUS44 KJAN 261720
TAFMEI
TAF
KMEI 261720Z 2618/2718 18005KT P6SM SCT035 BKN120
     FM262000 18004KT P6SM SCT035
     FM270100 20004KT P6SM SCT250
     FM271000 18003KT 3SM BR BKN010
     FM271500 20006KT P6SM SCT035=



000
FTUS44 KJAN 261720
TAFGWO
TAF
KGWO 261720Z 2618/2718 18004KT P6SM SCT035
     FM270100 20004KT P6SM SCT250
     FM271000 18003KT 5SM BR SCT015
     FM271500 20006KT P6SM SCT035=



000
FTUS44 KJAN 261720
TAFHBG
TAF
KHBG 261720Z 2618/2718 18005KT P6SM SCT035 BKN120
     FM262000 18004KT P6SM SCT035
     FM270100 20004KT P6SM SCT250
     FM270800 VRB03KT 3SM BR SCT010
     FM271000 VRB03KT 1SM BR BKN007
     FM271500 20006KT 6SM BR HZ SCT025=



000
FTUS44 KJAN 261720
TAFJAN
TAF
KJAN 261720Z 2618/2718 12006KT P6SM SCT035 BKN150
     FM261900 18005KT P6SM SCT035
     FM270100 20004KT P6SM SCT250
     FM271000 18003KT 5SM BR SCT015
     FM271500 20006KT P6SM SCT035=



000
FTUS44 KJAN 261720
TAFGLH
TAF
KGLH 261720Z 2618/2718 21007KT P6SM FEW015 SCT035
     FM270100 20005KT P6SM SCT250
     FM271100 19003KT 6SM BR SCT020
     FM271500 20006KT P6SM SCT035=



000
FTUS44 KJAN 261720
TAFGWO
TAF
KGWO 261720Z 2618/2718 18004KT P6SM SCT035
     FM270100 20004KT P6SM SCT250
     FM271000 18003KT 5SM BR SCT015
     FM271500 20006KT P6SM SCT035=



000
FTUS44 KJAN 261720
TAFMEI
TAF
KMEI 261720Z 2618/2718 18005KT P6SM SCT035 BKN120
     FM262000 18004KT P6SM SCT035
     FM270100 20004KT P6SM SCT250
     FM271000 18003KT 3SM BR BKN010
     FM271500 20006KT P6SM SCT035=



000
FTUS44 KJAN 261720
TAFHBG
TAF
KHBG 261720Z 2618/2718 18005KT P6SM SCT035 BKN120
     FM262000 18004KT P6SM SCT035
     FM270100 20004KT P6SM SCT250
     FM270800 VRB03KT 3SM BR SCT010
     FM271000 VRB03KT 1SM BR BKN007
     FM271500 20006KT 6SM BR HZ SCT025=



000
FTUS44 KJAN 261720
TAFJAN
TAF
KJAN 261720Z 2618/2718 12006KT P6SM SCT035 BKN150
     FM261900 18005KT P6SM SCT035
     FM270100 20004KT P6SM SCT250
     FM271000 18003KT 5SM BR SCT015
     FM271500 20006KT P6SM SCT035=



000
FTUS44 KJAN 261720
TAFGLH
TAF
KGLH 261720Z 2618/2718 21007KT P6SM FEW015 SCT035
     FM270100 20005KT P6SM SCT250
     FM271100 19003KT 6SM BR SCT020
     FM271500 20006KT P6SM SCT035=



000
FTUS44 KJAN 261238 AAA
TAFMEI
TAF AMD
KMEI 261238Z 2613/2712 15003KT P6SM -SHRA BKN050 OVC100
     FM261700 18006KT P6SM VCSH OVC035
     FM270400 15004KT P6SM OVC015
     FM271000 16003KT P6SM OVC007=



000
FTUS44 KJAN 261120
TAFMEI
TAF
KMEI 261120Z 2612/2712 24009KT 6SM -SHRA BKN007 OVC025
     FM261400 18010KT P6SM -RA SCT008 BKN025 OVC100
     FM261700 18006KT P6SM VCSH OVC035
     FM270400 15004KT P6SM OVC015
     FM271000 16003KT P6SM OVC007=



000
FTUS44 KJAN 261120
TAFGLH
TAF
KGLH 261120Z 2612/2712 16011KT P6SM -RA SCT005 BKN120
     FM261600 18013G22KT P6SM VCSH SCT020 BKN050
     FM271000 18003KT P6SM OVC007=



000
FTUS44 KJAN 261120
TAFHBG
TAF
KHBG 261120Z 2612/2712 24006KT P6SM -RA SCT005 BKN050 OVC100
     FM261400 16010KT P6SM -RA BKN025 OVC120
     FM261700 16010KT P6SM VCSH OVC035
     FM270700 15003KT P6SM OVC007=



000
FTUS44 KJAN 261120
TAFGWO
TAF
KGWO 261120Z 2612/2712 18010KT P6SM -RA SCT008 BKN110
     FM261600 18009KT P6SM VCSH SCT020 BKN035
     FM261700 20010G17KT P6SM VCSH SCT060 BKN120
     FM271000 17004KT P6SM OVC015=



000
FTUS44 KJAN 261120
TAFJAN
TAF
KJAN 261120Z 2612/2712 16010KT P6SM -RA SCT006 BKN110
     FM261900 18008G17KT P6SM VCSH SCT020 BKN040
     FM271000 17003KT P6SM BKN015=



000
FTUS44 KJAN 260725 AAA
TAFJAN
TAF AMD
KJAN 260725Z 2607/2706 20015G35KT 1SM +TSRA BKN015 OVC030CB
     FM260900 27006KT 6SM -SHRA BR SCT010 BKN030
     FM261230 16010KT 5SM BR VCSH BKN015 OVC025
     FM261700 18008G17KT P6SM VCTS SCT020 BKN030CB=



000
FTUS44 KJAN 260520
TAFGLH
TAF
KGLH 260520Z 2606/2706 15012G22KT P6SM VCTS SCT030CB BKN120CB
      TEMPO 2606/2607 22020G35KT 1SM +TSRA BKN008 OVC025CB
     FM260700 20010G20KT 5SM -TSRA BKN010 OVC030CB
     FM260800 27006KT 6SM -SHRA BR SCT010 BKN030
     FM261100 16010KT 5SM BR VCSH BKN008 OVC015
     FM261600 18013G22KT P6SM VCTS SCT020 BKN030CB=



000
FTUS44 KJAN 260520
TAFJAN
TAF
KJAN 260520Z 2606/2706 16010KT P6SM VCSH SCT008 BKN015
     FM260830 20015G25KT 5SM -TSRA BKN015 OVC030CB
     FM261000 27006KT 6SM -SHRA BR SCT010 BKN030
     FM261230 16010KT 5SM BR VCSH BKN015 OVC025
     FM261700 18008G17KT P6SM VCTS SCT020 BKN030CB=



000
FTUS44 KJAN 260520
TAFJAN
TAF
KJAN 260520Z 2606/2706 16010KT P6SM VCSH SCT008 BKN015
     FM260830 20015G25KT 5SM -TSRA BKN015 OVC030CB
     FM261000 27006KT 6SM -SHRA BR SCT010 BKN030
     FM261230 16010KT 5SM BR VCSH BKN015 OVC025
     FM261700 18008G17KT P6SM VCTS SCT020 BKN030CB=



000
FTUS44 KJAN 260520
TAFHBG
TAF
KHBG 260520Z 2606/2706 13006KT P6SM VCSH BKN006 OVC010
     FM260800 14005KT 6SM -SHRA BR OVC005
     FM261400 16010KT P6SM VCTS OVC015CB
     FM261700 16010KT P6SM VCTS OVC050CB=



000
FTUS44 KJAN 260520
TAFMEI
TAF
KMEI 260520Z 2606/2706 16006KT P6SM -RA SCT008 BKN120
     FM260700 15004KT 6SM -SHRA BR OVC007
     FM261400 18009KT P6SM VCSH OVC015
     FM261600 18006KT 4SM -TSRA OVC015CB=



000
FTUS44 KJAN 260520
TAFHBG
TAF
KHBG 260520Z 2606/2706 13006KT P6SM VCSH BKN006 OVC010
     FM260800 14005KT 6SM -SHRA BR OVC005
     FM261400 16010KT P6SM VCTS OVC015CB
     FM261700 16010KT P6SM VCTS OVC050CB=



000
FTUS44 KJAN 260520
TAFMEI
TAF
KMEI 260520Z 2606/2706 16006KT P6SM -RA SCT008 BKN120
     FM260700 15004KT 6SM -SHRA BR OVC007
     FM261400 18009KT P6SM VCSH OVC015
     FM261600 18006KT 4SM -TSRA OVC015CB=



000
FTUS44 KJAN 260520
TAFGWO
TAF
KGWO 260520Z 2606/2706 15010G20KT P6SM FEW030 SCT050
     FM260700 15012G22KT P6SM VCTS SCT030CB BKN120CB
      TEMPO 2607/2608 22020G35KT 1SM +TSRA BKN008 OVC025CB
     FM260800 20010G20KT 5SM -TSRA BKN010 OVC030CB
     FM260900 27006KT 6SM -SHRA BR SCT010 BKN030
     FM261100 16010KT 5SM BR VCSH BKN008 OVC015
     FM261600 18013G22KT P6SM VCTS SCT020 BKN030CB=



000
FTUS44 KJAN 260520
TAFGLH
TAF
KGLH 260520Z 2606/2706 15012G22KT P6SM VCTS SCT030CB BKN120CB
      TEMPO 2606/2607 22020G35KT 1SM +TSRA BKN008 OVC025CB
     FM260700 20010G20KT 5SM -TSRA BKN010 OVC030CB
     FM260800 27006KT 6SM -SHRA BR SCT010 BKN030
     FM261100 16010KT 5SM BR VCSH BKN008 OVC015
     FM261600 18013G22KT P6SM VCTS SCT020 BKN030CB=



000
FTUS44 KJAN 260520
TAFGWO
TAF
KGWO 260520Z 2606/2706 15010G20KT P6SM FEW030 SCT050
     FM260700 15012G22KT P6SM VCTS SCT030CB BKN120CB
      TEMPO 2607/2608 22020G35KT 1SM +TSRA BKN008 OVC025CB
     FM260800 20010G20KT 5SM -TSRA BKN010 OVC030CB
     FM260900 27006KT 6SM -SHRA BR SCT010 BKN030
     FM261100 16010KT 5SM BR VCSH BKN008 OVC015
     FM261600 18013G22KT P6SM VCTS SCT020 BKN030CB=



000
FTUS44 KJAN 260458 AAA
TAFHBG
TAF AMD
KHBG 260458Z 2605/2624 14006KT P6SM VCSH BKN006 OVC010
     FM260600 14004KT 4SM BR BKN004 OVC010
     FM261000 17006KT 6SM -TSRA BKN010 BKN020CB
     FM261600 18010KT P6SM VCTS BKN015 BKN025CB=



000
FTUS44 KJAN 260458 AAA
TAFHBG
TAF AMD
KHBG 260458Z 2605/2624 14006KT P6SM VCSH BKN006 OVC010
     FM260600 14004KT 4SM BR BKN004 OVC010
     FM261000 17006KT 6SM -TSRA BKN010 BKN020CB
     FM261600 18010KT P6SM VCTS BKN015 BKN025CB=



000
FTUS44 KJAN 260446 AAB
TAFGLH
TAF AMD
KGLH 260446Z 2605/2624 22020G40KT 1SM +TSRA BKN008 OVC025CB
     FM260600 20010G20KT 5SM -TSRA BKN010 OVC030CB
     FM260800 27006KT 6SM BR VCSH SCT010 BKN030
     FM261100 16010KT 5SM BR BKN008 OVC015
     FM261600 18013G22KT P6SM VCTS SCT020 BKN030CB=



000
FTUS44 KJAN 260446 AAB
TAFGLH
TAF AMD
KGLH 260446Z 2605/2624 22020G40KT 1SM +TSRA BKN008 OVC025CB
     FM260600 20010G20KT 5SM -TSRA BKN010 OVC030CB
     FM260800 27006KT 6SM BR VCSH SCT010 BKN030
     FM261100 16010KT 5SM BR BKN008 OVC015
     FM261600 18013G22KT P6SM VCTS SCT020 BKN030CB=



000
FTUS44 KJAN 260341 AAA
TAFGWO
TAF AMD
KGWO 260341Z 2604/2624 15010G20KT P6SM FEW030 SCT050
     FM260530 20015G30KT 2SM +TSRA BKN010 OVC025CB
     FM260630 20010G20KT 5SM -TSRA BKN010 OVC030CB
     FM260830 27006KT 6SM BR VCSH SCT010 BKN030
     FM261130 16010KT 5SM BR VCSH BKN010 OVC020
     FM261700 18013G22KT P6SM VCTS SCT020 BKN030CB=



000
FTUS44 KJAN 260341 AAA
TAFGWO
TAF AMD
KGWO 260341Z 2604/2624 15010G20KT P6SM FEW030 SCT050
     FM260530 20015G30KT 2SM +TSRA BKN010 OVC025CB
     FM260630 20010G20KT 5SM -TSRA BKN010 OVC030CB
     FM260830 27006KT 6SM BR VCSH SCT010 BKN030
     FM261130 16010KT 5SM BR VCSH BKN010 OVC020
     FM261700 18013G22KT P6SM VCTS SCT020 BKN030CB=



000
FTUS44 KJAN 260308 AAA
TAFGLH
TAF AMD
KGLH 260308Z 2603/2624 15012G22KT P6SM VCTS SCT030CB BKN120CB
     FM260430 22020G40KT 1SM +TSRA BKN008 OVC025CB
     FM260600 20010G20KT 5SM -TSRA BKN010 OVC030CB
     FM260800 27006KT 6SM BR VCSH SCT010 BKN030
     FM261100 16010KT 5SM BR BKN008 OVC015
     FM261600 18013G22KT P6SM VCTS SCT020 BKN030CB=



000
FTUS44 KJAN 252347
TAFJAN
TAF
KJAN 252347Z 2600/2624 16010KT P6SM VCSH FEW020 SCT030 BKN080
     FM260430 20015G25KT 5SM -TSRA BKN015 OVC030CB
     FM260800 27006KT 6SM BR VCSH SCT010 BKN030
     FM261230 16010KT 5SM BR VCSH BKN015 OVC025
     FM261700 18008G17KT P6SM VCTS SCT020 BKN030CB=



000
FTUS44 KJAN 252347
TAFGWO
TAF
KGWO 252347Z 2600/2624 15010G20KT P6SM FEW030 SCT050
     FM260330 20015G30KT 2SM +TSRA BKN010 OVC025CB
     FM260500 20010G20KT 5SM -TSRA BKN010 OVC030CB
     FM260730 27006KT 6SM BR VCSH SCT010 BKN030
     FM261130 16010KT 5SM BR VCSH BKN010 OVC020
     FM261700 18013G22KT P6SM VCTS SCT020 BKN030CB=



000
FTUS44 KJAN 252347
TAFGLH
TAF
KGLH 252347Z 2600/2624 15012G22KT P6SM VCTS SCT030 BKN050CB
     FM260230 22020G40KT 1SM +TSRA BKN008 OVC025CB
     FM260400 20010G20KT 5SM -TSRA BKN010 OVC030CB
     FM260600 27006KT 6SM BR VCSH SCT010 BKN030
     FM261100 16010KT 5SM BR BKN008 OVC015
     FM261600 18013G22KT P6SM VCTS SCT020 BKN030CB=



000
FTUS44 KJAN 252347
TAFHBG
TAF
KHBG 252347Z 2600/2624 14006KT P6SM VCSH FEW010 SCT025 BKN070
     FM260600 14004KT 4SM BR BKN004 OVC010
     FM261000 17006KT 6SM -TSRA BKN010 BKN020CB
     FM261600 18010KT P6SM VCTS BKN015 BKN025CB=



000
FTUS44 KJAN 252347
TAFMEI
TAF
KMEI 252347Z 2600/2624 14008KT P6SM FEW015 SCT025 BKN060
     FM260500 16009KT P6SM VCTS SCT020 BKN030CB
     FM260800 19010KT 5SM -TSRA BKN010 BKN020CB
     FM261500 17012KT P6SM VCTS BKN015 BKN025CB=



000
FTUS44 KJAN 251754
TAFGWO
TAF
KGWO 251754Z 2518/2618 17012KT P6SM BKN025 BKN035
     FM252000 16012KT P6SM VCSH BKN040
     FM261000 22013G23KT 2SM TSRA OVC008CB
     FM261300 16012KT P6SM VCSH BKN008 OVC015
     FM261600 17013G22KT P6SM VCSH BKN035=



000
FTUS44 KJAN 251754
TAFMEI
TAF
KMEI 251754Z 2518/2618 14008KT P6SM VCTS SCT020 BKN040CB
     FM260000 14008KT P6SM VCSH SCT025
     FM260900 14005KT 6SM BR BKN005 OVC012
     FM261500 17012KT P6SM VCTS BKN015 BKN025CB=



000
FTUS44 KJAN 251754
TAFGLH
TAF
KGLH 251754Z 2518/2618 17012KT P6SM BKN025 BKN035
     FM252000 16012KT P6SM VCSH BKN040
     FM260800 22013G23KT 2SM TSRA OVC008CB
     FM261200 16012KT P6SM VCSH BKN008 OVC015
     FM261500 18013G22KT P6SM VCSH BKN035=



000
FTUS44 KJAN 251754
TAFJAN
TAF
KJAN 251754Z 2518/2618 14010KT P6SM VCTS SCT025 BKN035CB
     FM252000 16012KT P6SM VCSH BKN040
     FM261000 18013KT 4SM TSRA OVC008CB
     FM261300 16012KT P6SM VCSH BKN008 OVC015
     FM261600 17012KT P6SM VCSH BKN035=



000
FTUS44 KJAN 251754
TAFHBG
TAF
KHBG 251754Z 2518/2618 14012KT P6SM -SHRA VCTS SCT020 BKN030CB
     FM260000 14008KT P6SM VCSH SCT025
     FM260900 14004KT 4SM BR BKN004 OVC010
     FM261500 17012KT P6SM VCTS BKN015 BKN025CB=



000
FTUS44 KJAN 251754
TAFGLH
TAF
KGLH 251754Z 2518/2618 17012KT P6SM BKN025 BKN035
     FM252000 16012KT P6SM VCSH BKN040
     FM260800 22013G23KT 2SM TSRA OVC008CB
     FM261200 16012KT P6SM VCSH BKN008 OVC015
     FM261500 18013G22KT P6SM VCSH BKN035=



000
FTUS44 KJAN 251754
TAFHBG
TAF
KHBG 251754Z 2518/2618 14012KT P6SM -SHRA VCTS SCT020 BKN030CB
     FM260000 14008KT P6SM VCSH SCT025
     FM260900 14004KT 4SM BR BKN004 OVC010
     FM261500 17012KT P6SM VCTS BKN015 BKN025CB=



000
FTUS44 KJAN 251754
TAFJAN
TAF
KJAN 251754Z 2518/2618 14010KT P6SM VCTS SCT025 BKN035CB
     FM252000 16012KT P6SM VCSH BKN040
     FM261000 18013KT 4SM TSRA OVC008CB
     FM261300 16012KT P6SM VCSH BKN008 OVC015
     FM261600 17012KT P6SM VCSH BKN035=



000
FTUS44 KJAN 251754
TAFGWO
TAF
KGWO 251754Z 2518/2618 17012KT P6SM BKN025 BKN035
     FM252000 16012KT P6SM VCSH BKN040
     FM261000 22013G23KT 2SM TSRA OVC008CB
     FM261300 16012KT P6SM VCSH BKN008 OVC015
     FM261600 17013G22KT P6SM VCSH BKN035=



000
FTUS44 KJAN 251754
TAFMEI
TAF
KMEI 251754Z 2518/2618 14008KT P6SM VCTS SCT020 BKN040CB
     FM260000 14008KT P6SM VCSH SCT025
     FM260900 14005KT 6SM BR BKN005 OVC012
     FM261500 17012KT P6SM VCTS BKN015 BKN025CB=



000
FTUS44 KJAN 251140
TAFMEI
TAF
KMEI 251140Z 2512/2612 16008KT 6SM -SHRA SCT025 OVC060
     FM251500 16011KT P6SM VCTS BKN030CB OVC050
     FM252000 15011G20KT P6SM VCTS OVC070CB
     FM260600 15008KT P6SM OVC250
     FM260700 16007KT P6SM OVC015
     FM260900 17004KT 6SM BR OVC007=



000
FTUS44 KJAN 251140
TAFGWO
TAF
KGWO 251140Z 2512/2612 17007KT 6SM -SHRA SCT010 OVC050
     FM251700 16013G19KT P6SM -SHRA VCTS SCT030 BKN050CB
     FM260600 17011KT P6SM -SHRA VCTS OVC025CB
     FM261000 16012KT P6SM -SHRA OVC025=



000
FTUS44 KJAN 251140
TAFHBG
TAF
KHBG 251140Z 2512/2612 14007KT 6SM -SHRA SCT012 BKN040
     FM251500 15011KT P6SM VCTS SCT015 OVC050CB
     FM251800 14011G20KT P6SM VCTS SCT015CB
     FM260700 16005KT P6SM OVC100
     FM260800 17004KT P6SM OVC015
     FM261000 16003KT P6SM OVC007=



000
FTUS44 KJAN 251140
TAFGLH
TAF
KGLH 251140Z 2512/2612 17007KT 6SM -SHRA SCT010 OVC050
     FM251700 16013G19KT P6SM -SHRA VCTS SCT030 BKN050CB
     FM260600 17011KT P6SM -SHRA VCTS OVC025CB
     FM261000 16012KT P6SM -SHRA OVC025=



000
FTUS44 KJAN 251140
TAFMEI
TAF
KMEI 251140Z 2512/2612 16008KT 6SM -SHRA SCT025 OVC060
     FM251500 16011KT P6SM VCTS BKN030CB OVC050
     FM252000 15011G20KT P6SM VCTS OVC070CB
     FM260600 15008KT P6SM OVC250
     FM260700 16007KT P6SM OVC015
     FM260900 17004KT 6SM BR OVC007=



000
FTUS44 KJAN 251140
TAFHBG
TAF
KHBG 251140Z 2512/2612 14007KT 6SM -SHRA SCT012 BKN040
     FM251500 15011KT P6SM VCTS SCT015 OVC050CB
     FM251800 14011G20KT P6SM VCTS SCT015CB
     FM260700 16005KT P6SM OVC100
     FM260800 17004KT P6SM OVC015
     FM261000 16003KT P6SM OVC007=



000
FTUS44 KJAN 251140
TAFGLH
TAF
KGLH 251140Z 2512/2612 17007KT 6SM -SHRA SCT010 OVC050
     FM251700 16013G19KT P6SM -SHRA VCTS SCT030 BKN050CB
     FM260600 17011KT P6SM -SHRA VCTS OVC025CB
     FM261000 16012KT P6SM -SHRA OVC025=



000
FTUS44 KJAN 251140
TAFGWO
TAF
KGWO 251140Z 2512/2612 17007KT 6SM -SHRA SCT010 OVC050
     FM251700 16013G19KT P6SM -SHRA VCTS SCT030 BKN050CB
     FM260600 17011KT P6SM -SHRA VCTS OVC025CB
     FM261000 16012KT P6SM -SHRA OVC025=



000
FTUS44 KJAN 251140
TAFJAN
TAF
KJAN 251140Z 2512/2612 14008KT P6SM -SHRA BKN015 OVC050
     FM251500 15013KT P6SM -SHRA VCTS OVC015CB
     FM252100 15014KT P6SM -SHRA VCTS OVC040CB
     FM260000 14014KT P6SM -SHRA VCTS OVC030CB
     FM260900 17009KT P6SM -SHRA OVC015=



000
FTUS44 KJAN 251140
TAFJAN
TAF
KJAN 251140Z 2512/2612 14008KT P6SM -SHRA BKN015 OVC050
     FM251500 15013KT P6SM -SHRA VCTS OVC015CB
     FM252100 15014KT P6SM -SHRA VCTS OVC040CB
     FM260000 14014KT P6SM -SHRA VCTS OVC030CB
     FM260900 17009KT P6SM -SHRA OVC015=



000
FTUS44 KJAN 250842 AAA
TAFMEI
TAF AMD
KMEI 250842Z 2509/2606 16008KT 6SM -SHRA VCTS SCT015CB OVC060
     FM251000 15008KT 4SM -SHRA BR OVC007
     FM251500 16011KT P6SM VCTS BKN030CB OVC050=



000
FTUS44 KJAN 250527
TAFGLH
TAF
KGLH 250527Z 2506/2606 17010KT 5SM -SHRA BR SCT030 OVC100
     FM250900 18010KT 6SM -SHRA BR BKN010 OVC050
     FM251500 17012KT P6SM VCTS SCT030 BKN050CB=



000
FTUS44 KJAN 250527
TAFJAN
TAF
KJAN 250527Z 2506/2606 16010KT 4SM SHRA VCTS FEW010 BKN030 BKN050CB
     FM250900 13006KT P6SM -SHRA OVC007
     FM251500 16011KT P6SM VCTS SCT008 BKN015CB
     FM251900 13012KT P6SM VCTS BKN025CB OVC050=



000
FTUS44 KJAN 250527
TAFMEI
TAF
KMEI 250527Z 2506/2606 16009KT 5SM SHRA VCTS BKN015CB OVC030
     FM250800 16008KT 6SM -SHRA VCTS BKN015CB OVC030
      TEMPO 2508/2509 VRB30KT 1SM TSRA BKN005CB
     FM251000 15008KT 4SM -SHRA BR OVC007
     FM251500 16011KT P6SM VCTS BKN030CB OVC050=



000
FTUS44 KJAN 250527
TAFHBG
TAF
KHBG 250527Z 2506/2606 14007KT 5SM SHRA VCTS SCT012CB BKN030
     FM250900 14005KT 3SM BR OVC007
     FM251500 15011KT P6SM VCTS SCT015 OVC050CB=



000
FTUS44 KJAN 250527
TAFGWO
TAF
KGWO 250527Z 2506/2606 17010KT 5SM -SHRA BR SCT030 OVC100
     FM250900 18010KT 6SM -SHRA BR BKN010 OVC050
     FM251300 17012KT P6SM VCTS SCT030 BKN050CB=



000
FTUS44 KJAN 250505 AAC
TAFJAN
TAF AMD
KJAN 250505Z 2505/2524 23010G20KT 4SM TSRA BKN012CB OVC030
      TEMPO 2505/2506 VRB30KT 1/4SM +TSRA BKN005CB
     FM250700 15010KT 5SM -SHRA VCTS BKN030 OVC050CB
     FM251500 16011KT P6SM VCTS SCT030 BKN050CB=



000
FTUS44 KJAN 250505 AAC
TAFJAN
TAF AMD
KJAN 250505Z 2505/2524 23010G20KT 4SM TSRA BKN012CB OVC030
      TEMPO 2505/2506 VRB30KT 1/4SM +TSRA BKN005CB
     FM250700 15010KT 5SM -SHRA VCTS BKN030 OVC050CB
     FM251500 16011KT P6SM VCTS SCT030 BKN050CB=



000
FTUS44 KJAN 250502 AAB
TAFJAN
TAF AMD
KJAN 250502Z 2505/2524 23010G20KT 4SM TSRA BKN012CB OVC030
      TEMPO 2505/2506 VRB30KT 1SM TSRA BKN005CB
     FM250700 15010KT 5SM -SHRA VCTS BKN030 OVC050CB
     FM251500 16011KT P6SM VCTS SCT030 BKN050CB=



000
FTUS44 KJAN 250502 AAB
TAFJAN
TAF AMD
KJAN 250502Z 2505/2524 23010G20KT 4SM TSRA BKN012CB OVC030
      TEMPO 2505/2506 VRB30KT 1SM TSRA BKN005CB
     FM250700 15010KT 5SM -SHRA VCTS BKN030 OVC050CB
     FM251500 16011KT P6SM VCTS SCT030 BKN050CB=



000
FTUS44 KJAN 250155 AAA
TAFJAN
TAF AMD
KJAN 250155Z 2502/2524 17010KT 3SM TSRA BR SCT015 BKN025CB OVC050
     FM250400 16010KT 6SM -SHRA VCTS FEW010 SCT020 BKN030CB
     FM251500 16011KT P6SM VCTS SCT030 BKN050CB=



000
FTUS44 KJAN 250155 AAA
TAFJAN
TAF AMD
KJAN 250155Z 2502/2524 17010KT 3SM TSRA BR SCT015 BKN025CB OVC050
     FM250400 16010KT 6SM -SHRA VCTS FEW010 SCT020 BKN030CB
     FM251500 16011KT P6SM VCTS SCT030 BKN050CB=



    US Dept of Commerce
    National Oceanic and Atmospheric Administration
    National Weather Service
    1325 East West Highway
    Silver Spring, MD 20910
    Page Author: NWS Internet Services Team
Disclaimer
Information Quality
Credits
Glossary
Privacy Policy
Freedom of Information Act (FOIA)
About Us
Career Opportunities